sensor_id;sensor_type;location;lat;lon;timestamp;P1;durP1;ratioP1;P2;durP2;ratioP2
76423;SDS011;65257;52.104;4.268;2023-05-02T00:02:21;10.30;;;5.43;;
76423;SDS011;65257;52.104;4.268;2023-05-02T00:04:46;12.15;;;4.55;;
76423;SDS011;65257;52.104;4.268;2023-05-02T00:07:15;15.02;;;4.90;;
76423;SDS011;65257;52.104;4.268;2023-05-02T00:09:40;11.25;;;4.90;;
76423;SDS011;65257;52.104;4.268;2023-05-02T00:12:06;12.75;;;5.15;;
76423;SDS011;65257;52.104;4.268;2023-05-02T00:14:40;15.57;;;4.85;;
76423;SDS011;65257;52.104;4.268;2023-05-02T00:17:07;13.52;;;4.88;;
76423;SDS011;65257;52.104;4.268;2023-05-02T00:19:41;5.43;;;3.20;;
76423;SDS011;65257;52.104;4.268;2023-05-02T00:22:09;8.75;;;3.70;;
76423;SDS011;65257;52.104;4.268;2023-05-02T00:24:38;12.77;;;4.18;;
76423;SDS011;65257;52.104;4.268;2023-05-02T00:27:04;10.60;;;3.97;;
76423;SDS011;65257;52.104;4.268;2023-05-02T00:29:31;12.93;;;3.97;;
76423;SDS011;65257;52.104;4.268;2023-05-02T00:31:59;11.20;;;3.67;;
76423;SDS011;65257;52.104;4.268;2023-05-02T00:34:28;13.27;;;4.13;;
76423;SDS011;65257;52.104;4.268;2023-05-02T00:36:58;15.60;;;3.65;;
76423;SDS011;65257;52.104;4.268;2023-05-02T00:39:24;10.88;;;4.57;;
76423;SDS011;65257;52.104;4.268;2023-05-02T00:41:58;11.57;;;3.72;;
76423;SDS011;65257;52.104;4.268;2023-05-02T00:44:27;18.20;;;5.43;;
76423;SDS011;65257;52.104;4.268;2023-05-02T00:46:53;14.60;;;5.00;;
76423;SDS011;65257;52.104;4.268;2023-05-02T00:49:22;20.65;;;5.05;;
76423;SDS011;65257;52.104;4.268;2023-05-02T00:51:51;10.02;;;4.10;;
76423;SDS011;65257;52.104;4.268;2023-05-02T00:54:20;9.60;;;4.22;;
76423;SDS011;65257;52.104;4.268;2023-05-02T00:56:46;11.07;;;3.45;;
76423;SDS011;65257;52.104;4.268;2023-05-02T00:59:12;10.57;;;3.90;;
76423;SDS011;65257;52.104;4.268;2023-05-02T01:13:16;15.50;;;4.05;;
76423;SDS011;65257;52.104;4.268;2023-05-02T01:15:48;20.67;;;4.97;;
76423;SDS011;65257;52.104;4.268;2023-05-02T01:18:29;17.67;;;4.25;;
76423;SDS011;65257;52.104;4.268;2023-05-02T01:21:08;21.08;;;4.97;;
76423;SDS011;65257;52.104;4.268;2023-05-02T01:26:35;14.20;;;4.45;;
76423;SDS011;65257;52.104;4.268;2023-05-02T01:29:15;13.68;;;3.70;;
76423;SDS011;65257;52.104;4.268;2023-05-02T01:31:43;10.63;;;3.33;;
76423;SDS011;65257;52.104;4.268;2023-05-02T01:34:12;12.00;;;3.35;;
76423;SDS011;65257;52.104;4.268;2023-05-02T01:36:40;6.85;;;2.72;;
76423;SDS011;65257;52.104;4.268;2023-05-02T01:39:13;17.50;;;3.47;;
76423;SDS011;65257;52.104;4.268;2023-05-02T01:41:43;12.82;;;2.83;;
76423;SDS011;65257;52.104;4.268;2023-05-02T01:44:10;14.73;;;3.63;;
76423;SDS011;65257;52.104;4.268;2023-05-02T01:46:39;17.30;;;3.88;;
76423;SDS011;65257;52.104;4.268;2023-05-02T01:49:07;13.05;;;3.80;;
76423;SDS011;65257;52.104;4.268;2023-05-02T01:51:34;16.02;;;3.65;;
76423;SDS011;65257;52.104;4.268;2023-05-02T01:54:05;13.57;;;4.07;;
76423;SDS011;65257;52.104;4.268;2023-05-02T01:56:34;14.23;;;3.47;;
76423;SDS011;65257;52.104;4.268;2023-05-02T01:59:04;8.07;;;3.22;;
76423;SDS011;65257;52.104;4.268;2023-05-02T02:01:36;11.70;;;3.03;;
76423;SDS011;65257;52.104;4.268;2023-05-02T02:04:04;10.98;;;3.08;;
76423;SDS011;65257;52.104;4.268;2023-05-02T02:06:39;10.77;;;2.50;;
76423;SDS011;65257;52.104;4.268;2023-05-02T02:09:09;11.95;;;2.63;;
76423;SDS011;65257;52.104;4.268;2023-05-02T02:11:59;9.93;;;2.38;;
76423;SDS011;65257;52.104;4.268;2023-05-02T02:14:30;8.57;;;2.22;;
76423;SDS011;65257;52.104;4.268;2023-05-02T02:17:04;12.55;;;2.85;;
76423;SDS011;65257;52.104;4.268;2023-05-02T02:22:02;7.45;;;2.22;;
76423;SDS011;65257;52.104;4.268;2023-05-02T02:24:30;10.10;;;2.50;;
76423;SDS011;65257;52.104;4.268;2023-05-02T02:27:02;12.18;;;3.08;;
76423;SDS011;65257;52.104;4.268;2023-05-02T02:29:29;13.02;;;2.65;;
76423;SDS011;65257;52.104;4.268;2023-05-02T02:31:57;12.30;;;2.10;;
76423;SDS011;65257;52.104;4.268;2023-05-02T02:34:22;9.13;;;1.45;;
76423;SDS011;65257;52.104;4.268;2023-05-02T02:47:56;10.90;;;1.88;;
76423;SDS011;65257;52.104;4.268;2023-05-02T02:50:49;7.40;;;2.05;;
76423;SDS011;65257;52.104;4.268;2023-05-02T02:53:25;7.60;;;1.95;;
76423;SDS011;65257;52.104;4.268;2023-05-02T02:56:02;12.40;;;1.65;;
76423;SDS011;65257;52.104;4.268;2023-05-02T03:00:56;8.63;;;1.67;;
76423;SDS011;65257;52.104;4.268;2023-05-02T03:03:26;10.13;;;2.13;;
76423;SDS011;65257;52.104;4.268;2023-05-02T03:05:57;7.97;;;1.85;;
76423;SDS011;65257;52.104;4.268;2023-05-02T03:08:41;11.93;;;2.78;;
76423;SDS011;65257;52.104;4.268;2023-05-02T03:11:29;11.13;;;2.88;;
76423;SDS011;65257;52.104;4.268;2023-05-02T03:14:07;9.05;;;2.42;;
76423;SDS011;65257;52.104;4.268;2023-05-02T03:16:36;16.15;;;2.92;;
76423;SDS011;65257;52.104;4.268;2023-05-02T03:19:13;12.55;;;3.15;;
76423;SDS011;65257;52.104;4.268;2023-05-02T03:21:38;9.40;;;2.15;;
76423;SDS011;65257;52.104;4.268;2023-05-02T03:24:11;11.73;;;2.35;;
76423;SDS011;65257;52.104;4.268;2023-05-02T03:26:36;8.32;;;1.67;;
76423;SDS011;65257;52.104;4.268;2023-05-02T03:29:05;11.18;;;2.35;;
76423;SDS011;65257;52.104;4.268;2023-05-02T03:31:30;10.80;;;2.10;;
76423;SDS011;65257;52.104;4.268;2023-05-02T03:33:56;9.82;;;2.55;;
76423;SDS011;65257;52.104;4.268;2023-05-02T03:36:24;11.25;;;2.17;;
76423;SDS011;65257;52.104;4.268;2023-05-02T03:38:50;18.08;;;1.50;;
76423;SDS011;65257;52.104;4.268;2023-05-02T03:41:15;7.43;;;1.40;;
76423;SDS011;65257;52.104;4.268;2023-05-02T03:43:41;8.38;;;1.80;;
76423;SDS011;65257;52.104;4.268;2023-05-02T03:46:07;12.57;;;1.83;;
76423;SDS011;65257;52.104;4.268;2023-05-02T03:48:39;9.13;;;2.78;;
76423;SDS011;65257;52.104;4.268;2023-05-02T03:51:06;11.27;;;1.90;;
76423;SDS011;65257;52.104;4.268;2023-05-02T03:53:33;9.68;;;1.90;;
76423;SDS011;65257;52.104;4.268;2023-05-02T03:56:05;11.30;;;2.28;;
76423;SDS011;65257;52.104;4.268;2023-05-02T03:58:32;11.27;;;3.55;;
76423;SDS011;65257;52.104;4.268;2023-05-02T04:01:00;13.57;;;2.35;;
76423;SDS011;65257;52.104;4.268;2023-05-02T04:03:26;13.05;;;1.90;;
76423;SDS011;65257;52.104;4.268;2023-05-02T04:05:52;12.68;;;2.38;;
76423;SDS011;65257;52.104;4.268;2023-05-02T04:08:18;8.80;;;2.00;;
76423;SDS011;65257;52.104;4.268;2023-05-02T04:10:49;6.05;;;2.00;;
76423;SDS011;65257;52.104;4.268;2023-05-02T04:13:17;10.00;;;2.38;;
76423;SDS011;65257;52.104;4.268;2023-05-02T04:15:43;14.23;;;2.35;;
76423;SDS011;65257;52.104;4.268;2023-05-02T04:18:17;8.98;;;1.55;;
76423;SDS011;65257;52.104;4.268;2023-05-02T04:20:43;7.88;;;1.85;;
76423;SDS011;65257;52.104;4.268;2023-05-02T04:23:09;17.40;;;2.53;;
76423;SDS011;65257;52.104;4.268;2023-05-02T04:25:34;9.88;;;1.92;;
76423;SDS011;65257;52.104;4.268;2023-05-02T04:28:00;17.33;;;3.08;;
76423;SDS011;65257;52.104;4.268;2023-05-02T04:30:25;8.25;;;2.50;;
76423;SDS011;65257;52.104;4.268;2023-05-02T04:32:55;13.70;;;2.88;;
76423;SDS011;65257;52.104;4.268;2023-05-02T04:35:27;9.55;;;2.55;;
76423;SDS011;65257;52.104;4.268;2023-05-02T04:37:53;17.08;;;4.20;;
76423;SDS011;65257;52.104;4.268;2023-05-02T04:40:18;12.23;;;2.42;;
76423;SDS011;65257;52.104;4.268;2023-05-02T04:42:43;13.73;;;2.95;;
76423;SDS011;65257;52.104;4.268;2023-05-02T04:45:10;29.48;;;4.22;;
76423;SDS011;65257;52.104;4.268;2023-05-02T04:47:37;22.35;;;5.22;;
76423;SDS011;65257;52.104;4.268;2023-05-02T04:50:04;14.20;;;2.53;;
76423;SDS011;65257;52.104;4.268;2023-05-02T04:52:31;25.63;;;3.22;;
76423;SDS011;65257;52.104;4.268;2023-05-02T04:55:05;22.30;;;3.85;;
76423;SDS011;65257;52.104;4.268;2023-05-02T04:57:31;20.58;;;3.65;;
76423;SDS011;65257;52.104;4.268;2023-05-02T04:59:57;20.23;;;3.13;;
76423;SDS011;65257;52.104;4.268;2023-05-02T05:02:23;19.02;;;4.15;;
76423;SDS011;65257;52.104;4.268;2023-05-02T05:04:49;8.82;;;2.55;;
76423;SDS011;65257;52.104;4.268;2023-05-02T05:07:15;19.75;;;3.75;;
76423;SDS011;65257;52.104;4.268;2023-05-02T05:09:40;10.13;;;2.20;;
76423;SDS011;65257;52.104;4.268;2023-05-02T05:12:06;21.10;;;2.78;;
76423;SDS011;65257;52.104;4.268;2023-05-02T05:14:32;16.67;;;2.83;;
76423;SDS011;65257;52.104;4.268;2023-05-02T05:17:05;11.45;;;2.47;;
76423;SDS011;65257;52.104;4.268;2023-05-02T05:19:31;13.15;;;2.83;;
76423;SDS011;65257;52.104;4.268;2023-05-02T05:21:56;15.23;;;2.47;;
76423;SDS011;65257;52.104;4.268;2023-05-02T05:24:25;12.65;;;3.55;;
76423;SDS011;65257;52.104;4.268;2023-05-02T05:26:50;20.67;;;2.75;;
76423;SDS011;65257;52.104;4.268;2023-05-02T05:29:18;11.55;;;2.40;;
76423;SDS011;65257;52.104;4.268;2023-05-02T05:31:45;18.58;;;3.50;;
76423;SDS011;65257;52.104;4.268;2023-05-02T05:34:12;11.98;;;2.50;;
76423;SDS011;65257;52.104;4.268;2023-05-02T05:36:43;21.85;;;2.22;;
76423;SDS011;65257;52.104;4.268;2023-05-02T05:39:10;7.43;;;1.52;;
76423;SDS011;65257;52.104;4.268;2023-05-02T05:41:35;14.10;;;2.50;;
76423;SDS011;65257;52.104;4.268;2023-05-02T05:44:05;12.40;;;1.83;;
76423;SDS011;65257;52.104;4.268;2023-05-02T05:46:30;7.10;;;2.03;;
76423;SDS011;65257;52.104;4.268;2023-05-02T05:48:56;16.25;;;2.28;;
76423;SDS011;65257;52.104;4.268;2023-05-02T05:51:21;12.88;;;2.33;;
76423;SDS011;65257;52.104;4.268;2023-05-02T05:53:50;43.75;;;4.10;;
76423;SDS011;65257;52.104;4.268;2023-05-02T05:56:18;20.15;;;2.30;;
76423;SDS011;65257;52.104;4.268;2023-05-02T05:58:44;14.77;;;2.28;;
76423;SDS011;65257;52.104;4.268;2023-05-02T06:01:09;15.20;;;2.05;;
76423;SDS011;65257;52.104;4.268;2023-05-02T06:03:45;14.80;;;3.28;;
76423;SDS011;65257;52.104;4.268;2023-05-02T06:06:14;6.55;;;1.40;;
76423;SDS011;65257;52.104;4.268;2023-05-02T06:08:45;12.43;;;2.20;;
76423;SDS011;65257;52.104;4.268;2023-05-02T06:11:12;10.90;;;2.03;;
76423;SDS011;65257;52.104;4.268;2023-05-02T06:13:40;9.60;;;2.42;;
76423;SDS011;65257;52.104;4.268;2023-05-02T06:16:08;16.52;;;2.03;;
76423;SDS011;65257;52.104;4.268;2023-05-02T06:18:34;10.70;;;1.90;;
76423;SDS011;65257;52.104;4.268;2023-05-02T06:21:03;15.98;;;2.38;;
76423;SDS011;65257;52.104;4.268;2023-05-02T06:23:29;11.27;;;2.17;;
76423;SDS011;65257;52.104;4.268;2023-05-02T06:25:59;12.60;;;2.40;;
76423;SDS011;65257;52.104;4.268;2023-05-02T06:28:25;12.55;;;2.63;;
76423;SDS011;65257;52.104;4.268;2023-05-02T06:31:00;8.45;;;2.47;;
76423;SDS011;65257;52.104;4.268;2023-05-02T06:33:31;7.72;;;1.77;;
76423;SDS011;65257;52.104;4.268;2023-05-02T06:36:01;8.65;;;1.70;;
76423;SDS011;65257;52.104;4.268;2023-05-02T06:38:27;11.63;;;2.78;;
76423;SDS011;65257;52.104;4.268;2023-05-02T06:40:55;9.88;;;2.03;;
76423;SDS011;65257;52.104;4.268;2023-05-02T06:43:21;12.85;;;1.80;;
76423;SDS011;65257;52.104;4.268;2023-05-02T06:45:51;19.10;;;3.50;;
76423;SDS011;65257;52.104;4.268;2023-05-02T06:48:18;20.15;;;2.75;;
76423;SDS011;65257;52.104;4.268;2023-05-02T06:50:45;15.15;;;2.35;;
76423;SDS011;65257;52.104;4.268;2023-05-02T06:53:10;17.20;;;3.83;;
76423;SDS011;65257;52.104;4.268;2023-05-02T06:55:36;34.72;;;5.45;;
76423;SDS011;65257;52.104;4.268;2023-05-02T06:58:14;23.83;;;2.63;;
76423;SDS011;65257;52.104;4.268;2023-05-02T07:00:43;10.65;;;2.88;;
76423;SDS011;65257;52.104;4.268;2023-05-02T07:03:11;15.43;;;3.38;;
76423;SDS011;65257;52.104;4.268;2023-05-02T07:05:40;25.52;;;3.90;;
76423;SDS011;65257;52.104;4.268;2023-05-02T07:08:05;17.48;;;2.75;;
76423;SDS011;65257;52.104;4.268;2023-05-02T07:10:41;16.45;;;2.97;;
76423;SDS011;65257;52.104;4.268;2023-05-02T07:13:26;12.82;;;2.60;;
76423;SDS011;65257;52.104;4.268;2023-05-02T07:15:52;14.77;;;2.70;;
76423;SDS011;65257;52.104;4.268;2023-05-02T07:18:21;11.02;;;2.47;;
76423;SDS011;65257;52.104;4.268;2023-05-02T07:20:49;12.45;;;2.50;;
76423;SDS011;65257;52.104;4.268;2023-05-02T07:23:15;11.30;;;2.90;;
76423;SDS011;65257;52.104;4.268;2023-05-02T07:25:41;12.05;;;2.03;;
76423;SDS011;65257;52.104;4.268;2023-05-02T07:28:13;13.85;;;2.90;;
76423;SDS011;65257;52.104;4.268;2023-05-02T07:30:41;9.02;;;1.80;;
76423;SDS011;65257;52.104;4.268;2023-05-02T07:33:07;8.82;;;2.25;;
76423;SDS011;65257;52.104;4.268;2023-05-02T07:35:35;9.02;;;1.80;;
76423;SDS011;65257;52.104;4.268;2023-05-02T07:38:05;17.73;;;4.13;;
76423;SDS011;65257;52.104;4.268;2023-05-02T07:40:30;10.68;;;2.08;;
76423;SDS011;65257;52.104;4.268;2023-05-02T07:43:01;9.38;;;1.60;;
76423;SDS011;65257;52.104;4.268;2023-05-02T07:45:30;10.40;;;1.90;;
76423;SDS011;65257;52.104;4.268;2023-05-02T07:47:58;7.85;;;2.13;;
76423;SDS011;65257;52.104;4.268;2023-05-02T07:50:24;11.07;;;2.28;;
76423;SDS011;65257;52.104;4.268;2023-05-02T07:52:51;12.02;;;2.53;;
76423;SDS011;65257;52.104;4.268;2023-05-02T07:55:18;15.32;;;2.58;;
76423;SDS011;65257;52.104;4.268;2023-05-02T07:57:54;12.10;;;1.88;;
76423;SDS011;65257;52.104;4.268;2023-05-02T08:00:20;9.88;;;1.67;;
76423;SDS011;65257;52.104;4.268;2023-05-02T08:02:45;11.68;;;1.92;;
76423;SDS011;65257;52.104;4.268;2023-05-02T08:05:11;10.75;;;2.53;;
76423;SDS011;65257;52.104;4.268;2023-05-02T08:07:36;11.55;;;1.58;;
76423;SDS011;65257;52.104;4.268;2023-05-02T08:10:02;8.68;;;1.98;;
76423;SDS011;65257;52.104;4.268;2023-05-02T08:12:39;6.32;;;1.77;;
76423;SDS011;65257;52.104;4.268;2023-05-02T08:15:09;7.95;;;1.52;;
76423;SDS011;65257;52.104;4.268;2023-05-02T08:17:37;7.43;;;1.50;;
76423;SDS011;65257;52.104;4.268;2023-05-02T08:20:04;6.10;;;1.38;;
76423;SDS011;65257;52.104;4.268;2023-05-02T08:22:44;6.63;;;1.73;;
76423;SDS011;65257;52.104;4.268;2023-05-02T08:25:15;6.78;;;1.38;;
76423;SDS011;65257;52.104;4.268;2023-05-02T08:27:41;9.52;;;2.20;;
76423;SDS011;65257;52.104;4.268;2023-05-02T08:30:06;6.93;;;2.08;;
76423;SDS011;65257;52.104;4.268;2023-05-02T08:32:34;10.10;;;1.60;;
76423;SDS011;65257;52.104;4.268;2023-05-02T08:35:01;9.20;;;1.60;;
76423;SDS011;65257;52.104;4.268;2023-05-02T08:37:27;8.95;;;1.45;;
76423;SDS011;65257;52.104;4.268;2023-05-02T08:39:52;11.07;;;1.70;;
76423;SDS011;65257;52.104;4.268;2023-05-02T08:42:18;5.22;;;1.45;;
76423;SDS011;65257;52.104;4.268;2023-05-02T08:44:47;9.45;;;1.75;;
76423;SDS011;65257;52.104;4.268;2023-05-02T08:47:13;5.13;;;1.25;;
76423;SDS011;65257;52.104;4.268;2023-05-02T08:49:43;5.30;;;1.40;;
76423;SDS011;65257;52.104;4.268;2023-05-02T08:52:11;4.47;;;1.40;;
76423;SDS011;65257;52.104;4.268;2023-05-02T08:54:41;7.05;;;1.90;;
76423;SDS011;65257;52.104;4.268;2023-05-02T08:57:16;8.43;;;1.95;;
76423;SDS011;65257;52.104;4.268;2023-05-02T08:59:42;8.20;;;2.20;;
76423;SDS011;65257;52.104;4.268;2023-05-02T09:02:17;5.20;;;1.75;;
76423;SDS011;65257;52.104;4.268;2023-05-02T09:05:08;7.63;;;1.60;;
76423;SDS011;65257;52.104;4.268;2023-05-02T09:07:46;11.18;;;2.60;;
76423;SDS011;65257;52.104;4.268;2023-05-02T09:10:19;6.00;;;2.22;;
76423;SDS011;65257;52.104;4.268;2023-05-02T09:12:45;6.07;;;1.83;;
76423;SDS011;65257;52.104;4.268;2023-05-02T09:15:14;8.23;;;1.83;;
76423;SDS011;65257;52.104;4.268;2023-05-02T09:17:42;10.55;;;2.75;;
76423;SDS011;65257;52.104;4.268;2023-05-02T09:20:09;8.95;;;1.95;;
76423;SDS011;65257;52.104;4.268;2023-05-02T09:22:51;11.23;;;2.05;;
76423;SDS011;65257;52.104;4.268;2023-05-02T09:25:19;9.07;;;2.05;;
76423;SDS011;65257;52.104;4.268;2023-05-02T09:27:50;6.13;;;1.55;;
76423;SDS011;65257;52.104;4.268;2023-05-02T09:30:26;9.65;;;1.90;;
76423;SDS011;65257;52.104;4.268;2023-05-02T09:32:55;7.22;;;1.50;;
76423;SDS011;65257;52.104;4.268;2023-05-02T09:35:20;11.43;;;1.55;;
76423;SDS011;65257;52.104;4.268;2023-05-02T09:37:49;6.97;;;1.67;;
76423;SDS011;65257;52.104;4.268;2023-05-02T09:40:24;9.30;;;2.10;;
76423;SDS011;65257;52.104;4.268;2023-05-02T09:42:54;5.80;;;1.70;;
76423;SDS011;65257;52.104;4.268;2023-05-02T09:45:24;7.43;;;1.52;;
76423;SDS011;65257;52.104;4.268;2023-05-02T09:47:53;5.43;;;1.42;;
76423;SDS011;65257;52.104;4.268;2023-05-02T09:53:05;12.25;;;2.85;;
76423;SDS011;65257;52.104;4.268;2023-05-02T09:55:36;8.50;;;2.15;;
76423;SDS011;65257;52.104;4.268;2023-05-02T09:58:02;4.88;;;1.80;;
76423;SDS011;65257;52.104;4.268;2023-05-02T10:00:40;10.68;;;1.75;;
76423;SDS011;65257;52.104;4.268;2023-05-02T10:03:09;12.93;;;1.88;;
76423;SDS011;65257;52.104;4.268;2023-05-02T10:05:40;5.28;;;1.58;;
76423;SDS011;65257;52.104;4.268;2023-05-02T10:08:11;11.25;;;2.20;;
76423;SDS011;65257;52.104;4.268;2023-05-02T10:10:39;8.60;;;1.63;;
76423;SDS011;65257;52.104;4.268;2023-05-02T10:13:15;5.35;;;1.80;;
76423;SDS011;65257;52.104;4.268;2023-05-02T10:15:49;9.95;;;1.77;;
76423;SDS011;65257;52.104;4.268;2023-05-02T10:21:34;12.07;;;2.10;;
76423;SDS011;65257;52.104;4.268;2023-05-02T10:24:01;16.50;;;2.40;;
76423;SDS011;65257;52.104;4.268;2023-05-02T10:26:30;9.20;;;1.90;;
76423;SDS011;65257;52.104;4.268;2023-05-02T10:28:59;4.78;;;1.30;;
76423;SDS011;65257;52.104;4.268;2023-05-02T10:31:26;9.32;;;2.42;;
76423;SDS011;65257;52.104;4.268;2023-05-02T10:33:58;6.03;;;2.08;;
76423;SDS011;65257;52.104;4.268;2023-05-02T10:36:24;8.00;;;1.98;;
76423;SDS011;65257;52.104;4.268;2023-05-02T10:38:51;7.35;;;1.90;;
76423;SDS011;65257;52.104;4.268;2023-05-02T10:41:21;11.32;;;2.05;;
76423;SDS011;65257;52.104;4.268;2023-05-02T10:43:56;7.63;;;1.73;;
76423;SDS011;65257;52.104;4.268;2023-05-02T10:49:10;6.45;;;1.45;;
76423;SDS011;65257;52.104;4.268;2023-05-02T10:51:40;7.70;;;2.05;;
76423;SDS011;65257;52.104;4.268;2023-05-02T10:59:35;6.80;;;1.83;;
76423;SDS011;65257;52.104;4.268;2023-05-02T11:02:02;6.90;;;1.88;;
76423;SDS011;65257;52.104;4.268;2023-05-02T11:07:26;9.63;;;1.95;;
76423;SDS011;65257;52.104;4.268;2023-05-02T11:12:54;11.23;;;1.85;;
76423;SDS011;65257;52.104;4.268;2023-05-02T11:17:59;4.70;;;1.83;;
76423;SDS011;65257;52.104;4.268;2023-05-02T11:20:25;9.38;;;1.80;;
76423;SDS011;65257;52.104;4.268;2023-05-02T11:22:51;8.02;;;1.70;;
76423;SDS011;65257;52.104;4.268;2023-05-02T11:25:33;8.57;;;1.77;;
76423;SDS011;65257;52.104;4.268;2023-05-02T11:31:06;6.10;;;2.00;;
76423;SDS011;65257;52.104;4.268;2023-05-02T11:33:55;5.55;;;1.52;;
76423;SDS011;65257;52.104;4.268;2023-05-02T11:36:30;5.55;;;1.63;;
76423;SDS011;65257;52.104;4.268;2023-05-02T11:39:00;6.10;;;1.30;;
76423;SDS011;65257;52.104;4.268;2023-05-02T11:44:16;3.88;;;1.40;;
76423;SDS011;65257;52.104;4.268;2023-05-02T11:46:50;6.45;;;1.50;;
76423;SDS011;65257;52.104;4.268;2023-05-02T11:49:23;7.15;;;1.60;;
76423;SDS011;65257;52.104;4.268;2023-05-02T11:51:48;5.38;;;1.27;;
76423;SDS011;65257;52.104;4.268;2023-05-02T11:54:18;3.97;;;1.30;;
76423;SDS011;65257;52.104;4.268;2023-05-02T11:56:48;7.45;;;1.90;;
76423;SDS011;65257;52.104;4.268;2023-05-02T11:59:14;10.23;;;1.85;;
76423;SDS011;65257;52.104;4.268;2023-05-02T12:01:47;6.88;;;1.80;;
76423;SDS011;65257;52.104;4.268;2023-05-02T12:04:13;9.00;;;1.58;;
76423;SDS011;65257;52.104;4.268;2023-05-02T12:06:43;6.03;;;1.48;;
76423;SDS011;65257;52.104;4.268;2023-05-02T12:09:25;4.10;;;1.52;;
76423;SDS011;65257;52.104;4.268;2023-05-02T12:11:54;4.35;;;1.70;;
76423;SDS011;65257;52.104;4.268;2023-05-02T12:14:29;5.22;;;1.73;;
76423;SDS011;65257;52.104;4.268;2023-05-02T12:16:57;5.03;;;1.70;;
76423;SDS011;65257;52.104;4.268;2023-05-02T12:19:26;5.43;;;1.73;;
76423;SDS011;65257;52.104;4.268;2023-05-02T12:21:52;10.30;;;2.22;;
76423;SDS011;65257;52.104;4.268;2023-05-02T12:24:18;7.00;;;2.10;;
76423;SDS011;65257;52.104;4.268;2023-05-02T12:26:45;4.80;;;1.60;;
76423;SDS011;65257;52.104;4.268;2023-05-02T12:29:36;8.48;;;1.83;;
76423;SDS011;65257;52.104;4.268;2023-05-02T12:32:09;6.90;;;2.20;;
76423;SDS011;65257;52.104;4.268;2023-05-02T12:34:39;9.88;;;1.70;;
76423;SDS011;65257;52.104;4.268;2023-05-02T12:37:08;7.30;;;1.80;;
76423;SDS011;65257;52.104;4.268;2023-05-02T12:39:36;6.28;;;1.88;;
76423;SDS011;65257;52.104;4.268;2023-05-02T12:42:13;9.32;;;1.75;;
76423;SDS011;65257;52.104;4.268;2023-05-02T12:44:42;6.28;;;1.83;;
76423;SDS011;65257;52.104;4.268;2023-05-02T12:47:09;7.82;;;1.88;;
76423;SDS011;65257;52.104;4.268;2023-05-02T12:49:56;9.45;;;1.85;;
76423;SDS011;65257;52.104;4.268;2023-05-02T12:55:20;9.73;;;2.00;;
76423;SDS011;65257;52.104;4.268;2023-05-02T12:58:03;6.65;;;2.13;;
76423;SDS011;65257;52.104;4.268;2023-05-02T13:00:41;6.05;;;1.58;;
76423;SDS011;65257;52.104;4.268;2023-05-02T13:03:08;7.75;;;1.80;;
76423;SDS011;65257;52.104;4.268;2023-05-02T13:05:39;6.57;;;2.35;;
76423;SDS011;65257;52.104;4.268;2023-05-02T13:08:05;8.00;;;1.95;;
76423;SDS011;65257;52.104;4.268;2023-05-02T13:10:31;8.27;;;2.05;;
76423;SDS011;65257;52.104;4.268;2023-05-02T13:12:57;8.15;;;2.13;;
76423;SDS011;65257;52.104;4.268;2023-05-02T13:15:26;7.22;;;1.88;;
76423;SDS011;65257;52.104;4.268;2023-05-02T13:17:55;8.02;;;1.98;;
76423;SDS011;65257;52.104;4.268;2023-05-02T13:20:21;8.32;;;2.05;;
76423;SDS011;65257;52.104;4.268;2023-05-02T13:22:50;9.65;;;2.75;;
76423;SDS011;65257;52.104;4.268;2023-05-02T13:25:24;6.38;;;2.20;;
76423;SDS011;65257;52.104;4.268;2023-05-02T13:27:53;6.03;;;1.80;;
76423;SDS011;65257;52.104;4.268;2023-05-02T13:30:19;7.63;;;2.63;;
76423;SDS011;65257;52.104;4.268;2023-05-02T13:32:51;6.63;;;2.25;;
76423;SDS011;65257;52.104;4.268;2023-05-02T13:35:16;7.03;;;2.22;;
76423;SDS011;65257;52.104;4.268;2023-05-02T13:37:52;5.45;;;1.60;;
76423;SDS011;65257;52.104;4.268;2023-05-02T13:40:18;12.02;;;2.00;;
76423;SDS011;65257;52.104;4.268;2023-05-02T13:42:43;7.88;;;2.10;;
76423;SDS011;65257;52.104;4.268;2023-05-02T13:45:12;4.97;;;2.33;;
76423;SDS011;65257;52.104;4.268;2023-05-02T13:47:41;9.10;;;2.15;;
76423;SDS011;65257;52.104;4.268;2023-05-02T13:50:10;9.93;;;2.28;;
76423;SDS011;65257;52.104;4.268;2023-05-02T13:52:36;12.50;;;2.05;;
76423;SDS011;65257;52.104;4.268;2023-05-02T13:55:05;10.55;;;2.60;;
76423;SDS011;65257;52.104;4.268;2023-05-02T13:57:33;7.10;;;2.45;;
76423;SDS011;65257;52.104;4.268;2023-05-02T13:59:59;8.65;;;2.28;;
76423;SDS011;65257;52.104;4.268;2023-05-02T14:02:24;7.63;;;2.88;;
76423;SDS011;65257;52.104;4.268;2023-05-02T14:04:50;10.23;;;3.05;;
76423;SDS011;65257;52.104;4.268;2023-05-02T14:07:22;9.38;;;2.38;;
76423;SDS011;65257;52.104;4.268;2023-05-02T14:09:53;11.50;;;2.60;;
76423;SDS011;65257;52.104;4.268;2023-05-02T14:12:19;8.70;;;2.05;;
76423;SDS011;65257;52.104;4.268;2023-05-02T14:14:44;9.38;;;2.22;;
76423;SDS011;65257;52.104;4.268;2023-05-02T14:17:10;9.95;;;3.55;;
76423;SDS011;65257;52.104;4.268;2023-05-02T14:19:36;8.85;;;2.50;;
76423;SDS011;65257;52.104;4.268;2023-05-02T14:22:01;10.10;;;2.65;;
76423;SDS011;65257;52.104;4.268;2023-05-02T14:24:31;6.05;;;1.80;;
76423;SDS011;65257;52.104;4.268;2023-05-02T14:26:56;5.93;;;2.75;;
76423;SDS011;65257;52.104;4.268;2023-05-02T14:29:31;11.23;;;2.90;;
76423;SDS011;65257;52.104;4.268;2023-05-02T14:31:57;8.32;;;2.25;;
76423;SDS011;65257;52.104;4.268;2023-05-02T14:34:28;10.18;;;2.10;;
76423;SDS011;65257;52.104;4.268;2023-05-02T14:36:54;8.48;;;2.33;;
76423;SDS011;65257;52.104;4.268;2023-05-02T14:39:23;8.63;;;2.88;;
76423;SDS011;65257;52.104;4.268;2023-05-02T14:41:49;7.43;;;2.45;;
76423;SDS011;65257;52.104;4.268;2023-05-02T14:44:18;10.85;;;2.80;;
76423;SDS011;65257;52.104;4.268;2023-05-02T14:46:43;9.55;;;2.55;;
76423;SDS011;65257;52.104;4.268;2023-05-02T14:49:19;11.40;;;2.40;;
76423;SDS011;65257;52.104;4.268;2023-05-02T14:51:45;10.80;;;2.13;;
76423;SDS011;65257;52.104;4.268;2023-05-02T14:54:12;10.00;;;2.22;;
76423;SDS011;65257;52.104;4.268;2023-05-02T14:56:41;9.82;;;2.50;;
76423;SDS011;65257;52.104;4.268;2023-05-02T14:59:07;10.02;;;1.92;;
76423;SDS011;65257;52.104;4.268;2023-05-02T15:01:33;6.75;;;2.25;;
76423;SDS011;65257;52.104;4.268;2023-05-02T15:03:59;9.40;;;2.63;;
76423;SDS011;65257;52.104;4.268;2023-05-02T15:06:27;5.70;;;2.55;;
76423;SDS011;65257;52.104;4.268;2023-05-02T15:08:55;6.10;;;2.20;;
76423;SDS011;65257;52.104;4.268;2023-05-02T15:11:21;12.25;;;2.55;;
76423;SDS011;65257;52.104;4.268;2023-05-02T15:13:50;11.65;;;2.40;;
76423;SDS011;65257;52.104;4.268;2023-05-02T15:16:26;4.50;;;2.28;;
76423;SDS011;65257;52.104;4.268;2023-05-02T15:18:51;9.52;;;2.35;;
76423;SDS011;65257;52.104;4.268;2023-05-02T15:21:17;10.60;;;2.50;;
76423;SDS011;65257;52.104;4.268;2023-05-02T15:23:48;10.30;;;2.75;;
76423;SDS011;65257;52.104;4.268;2023-05-02T15:26:14;7.28;;;1.80;;
76423;SDS011;65257;52.104;4.268;2023-05-02T15:28:40;12.65;;;2.20;;
76423;SDS011;65257;52.104;4.268;2023-05-02T15:31:05;7.90;;;2.60;;
76423;SDS011;65257;52.104;4.268;2023-05-02T15:33:31;7.55;;;2.15;;
76423;SDS011;65257;52.104;4.268;2023-05-02T15:35:58;6.97;;;2.35;;
76423;SDS011;65257;52.104;4.268;2023-05-02T15:38:38;10.43;;;2.53;;
76423;SDS011;65257;52.104;4.268;2023-05-02T15:41:10;5.35;;;1.85;;
76423;SDS011;65257;52.104;4.268;2023-05-02T15:43:36;9.57;;;2.80;;
76423;SDS011;65257;52.104;4.268;2023-05-02T15:46:02;15.57;;;2.35;;
76423;SDS011;65257;52.104;4.268;2023-05-02T15:48:39;6.95;;;1.58;;
76423;SDS011;65257;52.104;4.268;2023-05-02T15:51:05;11.60;;;3.03;;
76423;SDS011;65257;52.104;4.268;2023-05-02T15:53:36;12.73;;;2.83;;
76423;SDS011;65257;52.104;4.268;2023-05-02T15:56:06;8.98;;;2.05;;